WWR - West Woodward

Pirep is a free, collaborative database of all public and private airports located within the United States. All pilots are welcome to contribute, edit, and improve any airport they have local knowledge about, no registration required.
Are you familiar with this airport? Help out other pilots by adding your local knowledge.
Uploaded photos will be licensed under a CC BY-SA 4.0 license. Please only upload photos you have the rights to use.
Tags
Public
Undocu­mented
METAR / TAF
Edit Tags
Food
Camping
Lodging
Car Rental
Bicycles
Swimming
Golfing
Fishing
Hot Springs
Museum
Flying Clubs
Airpark
Upcoming Events
No upcoming events. Is anything happening here soon?
*
*
*

Where exactly on/near the airport is this event taking place?

Is there a webpage with more information for this event?

Who should be contacted for more information?

What is this event all about?

Repeat every
Description
Transient Parking
Fuel Location
Landing & Tie-down Fees
Crew Car Availability
Flying Clubs
WiFi Access
Airport Statistics
Location: Woodward, OK
Elevation: 2,189ft
Sectional: Wichita
Activation date: Mar 1943
Fuel: 100LL, A+ (prices)
Runway 17/35: 5,502ft
Runway 05/23: 2,500ft
Access: Open to the public
Current Weather — VFR
  • Weather data is strictly informational and not for flight planning purposes.
  • METAR
    2024-04-22 08:10:00 CDT
    Ceiling Wind Temperature Dewpoint Weather Visbility
    Sky clear 190° @ 15kt, gusts 23kt 51°F 37°F N/A 10SM
    Raw: KWWR 221310Z AUTO 19015G23KT 10SM CLR 11/03 A3014 RMK AO2
  • TAF
    2024-04-22 07:00:00 CDT – 2024-04-22 09:00:00 CDT
    Ceiling Wind Weather Visbility
    Sky clear 200° @ 10kt, gusts 16kt N/A 6SM
    Clouds: @ ft
    Raw: KWWR 221120Z 2212/2312 20010G16KT P6SM SKC FM221400 20020G30KT P6SM SKC FM230100 18018G26KT P6SM SKC WS010/21050KT
  • TAF
    2024-04-22 09:00:00 CDT – 2024-04-22 20:00:00 CDT
    Ceiling Wind Weather Visbility
    Sky clear 200° @ 20kt, gusts 30kt N/A 6SM
    Clouds: @ ft
    Raw: KWWR 221120Z 2212/2312 20010G16KT P6SM SKC FM221400 20020G30KT P6SM SKC FM230100 18018G26KT P6SM SKC WS010/21050KT
  • TAF
    2024-04-22 20:00:00 CDT – 2024-04-23 07:00:00 CDT
    Ceiling Wind Weather Visbility
    Sky clear 180° @ 18kt, gusts 26kt N/A 6SM
    Clouds: @ ft
    Raw: KWWR 221120Z 2212/2312 20010G16KT P6SM SKC FM221400 20020G30KT P6SM SKC FM230100 18018G26KT P6SM SKC WS010/21050KT
Click/tap to add an annotation marker to the map
Airport Webcams
No webcams added yet.
Direct links to live image URLs will be displayed inline on this page. URLs to separate webpages will be linked to.
URL:
Direct links to live image URLs will be displayed inline on this page. URLs to separate webpages will be linked to.
URL:
Remarks
  • Pre dates the act.
  • Ultralight activity on & invof arpt.
  • Tetrahedron ots.
  • Deer & coyotes on & invof arpt.
  • For cd ctc kansas city artcc at 913-254-8508.
  • Actvt & incr intst odals rwy 17; reil rwy 35; mirl rwy 17/35, 05/23 - ctaf. papi rwy 17 & 35 24-hr photo cell.
  • Aft hrs ctc 580-216-8233/ call out fee.
  • 24 hr. lounge
Comments
Leave a comment What was your experience like at this airport?